Nord Nanami — 3EWR2 — position and weather

sailwx.info

Track history (hours):
 
Tides and Currents Weather Stations Pressure Air Temp Water Temp Dewpoint Dewpoint Depression Visibility Wind Speed Wind Dir Waves Ship Positions

Nord Nanami

Last reported at 2016-Jul-29 13:34 UTC. Time now 2016-Jul-29 15:58 UTC.
Position N 57°48' E 010°24'.

Length 180 m; draft 9.6 m.

Type: Cargo ship. MMSI: 373694000.

Date/timePositionNaut miles runAvg speedWind from/ knotsBaromVisibWave heightAir tempDewpointWater temp
2016-Jul-29 13:34N 57°48' E 010°24'1211.7
2016-Jul-29 12:33N 57°48' E 010°46'1211.8
2016-Jul-29 11:33N 57°44' E 011°07'1211.6
2016-Jul-29 10:33N 57°39' E 011°27'8 8.0
2016-Jul-29 09:33N 57°36' E 011°41'0 0.0
2016-Jul-29 08:31N 57°36' E 011°41'0 0.0
2016-Jul-29 07:31N 57°36' E 011°41'1 1.0
2016-Jul-29 06:33N 57°35' E 011°40'7 6.7
2016-Jul-29 05:33N 57°29' E 011°35'1111.3
2016-Jul-29 04:33N 57°18' E 011°33'1312.6
2016-Jul-29 03:33N 57°06' E 011°41'1312.6
2016-Jul-29 02:33N 56°54' E 011°50'1110.7
2016-Jul-29 01:33N 56°44' E 011°53'3112.5
2016-Jul-28 23:03N 56°25' E 011°07'510.2
2016-Jul-28 22:33N 56°20' E 011°06'1312.8
2016-Jul-28 21:33N 56°07' E 011°06'1512.3
2016-Jul-28 20:20N 55°53' E 010°55'3111.1
2016-Jul-28 17:31N 55°22' E 011°02'1111.4
2016-Jul-28 16:33N 55°11' E 011°05'1212.4
2016-Jul-28 15:33N 54°59' E 011°01'1211.9
2016-Jul-28 14:33N 54°48' E 010°52'10 9.8
2016-Jul-28 13:33N 54°40' E 011°01'1312.6
2016-Jul-28 12:33N 54°34' E 011°20'1312.7
2016-Jul-28 11:33N 54°28' E 011°40'1211.9
2016-Jul-28 10:33N 54°26' E 011°60'1110.7
2016-Jul-28 09:33N 54°33' E 012°13'1212.0
2016-Jul-28 08:33N 54°42' E 012°28'4812.0
2016-Jul-28 04:33N 55°00' E 013°45'1212.0
2016-Jul-28 03:33N 55°08' E 014°02'1211.6
2016-Jul-28 02:33N 55°15' E 014°18'1212.1
2016-Jul-28 01:33N 55°24' E 014°31'1212.1
2016-Jul-28 00:33N 55°31' E 014°49'1212.1
2016-Jul-27 23:33N 55°36' E 015°08'1211.8
2016-Jul-27 22:33N 55°42' E 015°27'1412.1
2016-Jul-27 21:22N 55°50' E 015°48'1012.2
2016-Jul-27 20:33N 55°55' E 016°03'5012.1
2016-Jul-27 16:27N 56°32' E 017°02'12412.0
2016-Jul-27 06:06N 58°36' E 017°30'5 9.1
2016-Jul-27 05:33N 58°37' E 017°21'8 7.8
2016-Jul-27 04:33N 58°40' E 017°07'0 0.1
2016-Jul-27 03:31N 58°40' E 017°07'0 0.0
2016-Jul-27 02:31N 58°40' E 017°07'0 0.0
2016-Jul-27 01:31N 58°40' E 017°07'0 0.0
2016-Jul-27 00:31N 58°40' E 017°07'0 0.0
2016-Jul-26 23:31N 58°40' E 017°07'0 0.0
2016-Jul-26 22:31N 58°40' E 017°07'0 0.0
2016-Jul-26 21:31N 58°40' E 017°07'0 0.0
2016-Jul-26 20:31N 58°40' E 017°07'0 0.0
2016-Jul-26 19:31N 58°40' E 017°07'0 0.0
2016-Jul-26 18:28N 58°40' E 017°07'0 0.0
2016-Jul-26 17:31N 58°40' E 017°07'0 0.0
2016-Jul-26 16:31N 58°40' E 017°07'0 0.0
2016-Jul-26 15:31N 58°40' E 017°07'0 0.0
2016-Jul-26 14:31N 58°40' E 017°07'0 0.0
2016-Jul-26 13:31N 58°40' E 017°07'0 0.0
2016-Jul-26 12:31N 58°40' E 017°07'0 0.0
2016-Jul-26 11:31N 58°40' E 017°07'0 0.0
2016-Jul-26 10:31N 58°40' E 017°07'0 0.0
2016-Jul-26 09:31N 58°40' E 017°07'0 0.0
2016-Jul-26 08:31N 58°40' E 017°07'0 0.0
2016-Jul-26 07:31N 58°40' E 017°07'0 0.0
2016-Jul-26 06:31N 58°40' E 017°07'0 0.0
2016-Jul-26 05:31N 58°40' E 017°07'0 0.0
2016-Jul-26 04:31N 58°40' E 017°07'0 0.0
2016-Jul-26 03:31N 58°40' E 017°07'0 0.0
2016-Jul-26 02:31N 58°40' E 017°07'0 0.0
2016-Jul-26 01:31N 58°40' E 017°07'0 0.0
2016-Jul-26 00:31N 58°40' E 017°07'0 0.0
2016-Jul-25 23:31N 58°40' E 017°07'0 0.0
2016-Jul-25 22:31N 58°40' E 017°07'0 0.0
2016-Jul-25 21:31N 58°40' E 017°07'0 0.0
2016-Jul-25 20:28N 58°40' E 017°07'0 0.0
2016-Jul-25 19:31N 58°40' E 017°07'0 0.0
2016-Jul-25 18:31N 58°40' E 017°07'0 0.0
2016-Jul-25 17:33N 58°40' E 017°07'3 2.6
2016-Jul-25 16:33N 58°38' E 017°10'2 2.3
2016-Jul-25 15:33N 58°37' E 017°14'10 9.9
2016-Jul-25 14:33N 58°36' E 017°33'1 0.8
2016-Jul-25 13:33N 58°36' E 017°34'0 0.0
2016-Jul-25 12:30N 58°36' E 017°34'0 0.0
2016-Jul-25 11:33N 58°36' E 017°34'0 0.0
2016-Jul-25 10:27N 58°36' E 017°34'0 0.0
2016-Jul-25 09:33N 58°36' E 017°35'0 0.0
2016-Jul-25 08:33N 58°36' E 017°35'0 0.0
2016-Jul-25 07:33N 58°36' E 017°35'0 0.0
2016-Jul-25 06:33N 58°36' E 017°35'0 0.0
2016-Jul-25 05:27N 58°36' E 017°35'0 0.0
2016-Jul-25 04:33N 58°36' E 017°34'0 0.0
2016-Jul-25 03:33N 58°36' E 017°34'0 0.0
2016-Jul-25 02:33N 58°36' E 017°34'0 0.0
2016-Jul-25 01:24N 58°36' E 017°34'0 0.0
2016-Jul-24 23:30N 58°36' E 017°34'0 0.0
2016-Jul-24 22:33N 58°36' E 017°34'0 0.0
2016-Jul-24 21:33N 58°36' E 017°34'0 0.0
2016-Jul-24 20:33N 58°36' E 017°34'0 0.0
2016-Jul-24 19:33N 58°36' E 017°35'0 0.0
2016-Jul-24 18:30N 58°36' E 017°35'0 0.0
2016-Jul-24 17:33N 58°36' E 017°35'0 0.0
2016-Jul-24 16:33N 58°36' E 017°34'0 0.0
2016-Jul-24 15:33N 58°36' E 017°34'0 0.0
2016-Jul-24 14:33N 58°36' E 017°34'0 0.0
2016-Jul-24 13:33N 58°36' E 017°34'0 0.0
2016-Jul-24 12:33N 58°36' E 017°34'0 0.0
2016-Jul-24 11:33N 58°36' E 017°35'0 0.0
2016-Jul-24 10:33N 58°36' E 017°35'0 0.0
2016-Jul-24 09:33N 58°36' E 017°35'0 0.0
2016-Jul-24 08:33N 58°36' E 017°35'0 0.0
2016-Jul-24 07:33N 58°36' E 017°35'0 0.0
2016-Jul-24 06:27N 58°36' E 017°35'0 0.0
2016-Jul-24 05:33N 58°36' E 017°35'0 0.0
2016-Jul-24 04:33N 58°36' E 017°34'0 0.0
2016-Jul-24 03:33N 58°36' E 017°34'0 0.0
2016-Jul-24 02:33N 58°36' E 017°34'0 0.0
2016-Jul-24 01:33N 58°36' E 017°34'0 0.1
2016-Jul-24 00:33N 58°36' E 017°34'0 0.1
2016-Jul-23 23:33N 58°36' E 017°34'0 0.1
2016-Jul-23 22:33N 58°36' E 017°35'0 0.1
2016-Jul-23 21:33N 58°36' E 017°35'0 0.1
2016-Jul-23 20:33N 58°36' E 017°35'0 0.0
2016-Jul-23 19:33N 58°36' E 017°35'0 0.0
2016-Jul-23 18:33N 58°36' E 017°35'0 0.0
2016-Jul-23 17:33N 58°36' E 017°35'0 0.0
2016-Jul-23 16:33N 58°36' E 017°35'0 0.0
2016-Jul-23 15:33N 58°36' E 017°34'0 0.0
2016-Jul-23 14:33N 58°36' E 017°34'0 0.0
2016-Jul-23 13:33N 58°36' E 017°34'0 0.0
2016-Jul-23 12:27N 58°36' E 017°34'0 0.0
2016-Jul-23 11:33N 58°36' E 017°34'0 0.0
2016-Jul-23 10:27N 58°36' E 017°34'0 0.0
2016-Jul-23 09:33N 58°36' E 017°34'0 0.0
2016-Jul-23 08:33N 58°36' E 017°34'0 0.0
2016-Jul-23 07:33N 58°36' E 017°34'0 0.0
2016-Jul-23 06:33N 58°36' E 017°34'0 0.0
2016-Jul-23 03:33N 58°36' E 017°34'0 0.0
2016-Jul-23 02:09N 58°36' E 017°34'0 0.0
2016-Jul-23 01:30N 58°36' E 017°34'0 0.0
2016-Jul-23 00:33N 58°36' E 017°34'0 0.0
2016-Jul-22 23:30N 58°36' E 017°34'0 0.0
2016-Jul-22 16:12N 58°36' E 017°34'0 0.1
2016-Jul-22 15:33N 58°36' E 017°34'0 0.0
2016-Jul-22 14:33N 58°36' E 017°34'0 0.0
2016-Jul-22 13:30N 58°36' E 017°34'0 0.0
2016-Jul-22 12:21N 58°36' E 017°34'0 0.0
2016-Jul-22 11:33N 58°36' E 017°34'0 0.0
2016-Jul-22 09:15N 58°36' E 017°34'0 0.1
2016-Jul-22 08:33N 58°36' E 017°34'0 0.0
2016-Jul-22 07:30N 58°36' E 017°34'0 0.0
2016-Jul-22 05:33N 58°36' E 017°34'0 0.0
2016-Jul-22 04:33N 58°36' E 017°34'0 0.0
2016-Jul-22 03:33N 58°36' E 017°34'0 0.0
2016-Jul-22 02:33N 58°36' E 017°35'0 0.0
2016-Jul-22 01:33N 58°36' E 017°35'0 0.0
2016-Jul-22 00:30N 58°36' E 017°35'0 0.0
2016-Jul-21 23:33N 58°36' E 017°35'0 0.1
2016-Jul-21 22:33N 58°36' E 017°34'0 0.0
2016-Jul-21 17:03N 58°36' E 017°34'0 0.1
2016-Jul-21 16:33N 58°36' E 017°34'0 0.0
2016-Jul-21 15:33N 58°36' E 017°34'0 0.0
2016-Jul-21 14:33N 58°36' E 017°34'0 0.0
2016-Jul-21 13:24N 58°36' E 017°34'0 0.1
2016-Jul-21 12:21N 58°36' E 017°34'0 0.1
2016-Jul-21 11:18N 58°36' E 017°34'0 0.0
2016-Jul-21 10:30N 58°36' E 017°34'0 0.0
2016-Jul-21 09:33N 58°36' E 017°34'0 0.0
2016-Jul-21 08:33N 58°36' E 017°34'0 0.0
2016-Jul-21 07:33N 58°36' E 017°34'0 0.0
2016-Jul-21 06:33N 58°36' E 017°34'0 0.0
2016-Jul-21 05:33N 58°36' E 017°34'0 0.0
2016-Jul-21 04:33N 58°36' E 017°34'0 0.0
2016-Jul-21 03:30N 58°36' E 017°34'0 0.0
2016-Jul-21 02:33N 58°36' E 017°34'0 0.0
2016-Jul-21 01:33N 58°36' E 017°34'0 0.0
2016-Jul-21 00:33N 58°36' E 017°34'0 0.0
2016-Jul-20 23:33N 58°36' E 017°35'0 0.1
2016-Jul-20 22:33N 58°36' E 017°35'0 0.1
2016-Jul-20 21:33N 58°36' E 017°34'0 0.0
2016-Jul-20 20:33N 58°36' E 017°34'0 0.0
2016-Jul-20 19:33N 58°36' E 017°34'0 0.0
2016-Jul-20 18:33N 58°36' E 017°34'0 0.0
2016-Jul-20 17:33N 58°36' E 017°34'0 0.0
2016-Jul-20 16:33N 58°36' E 017°34'0 0.0
2016-Jul-20 15:33N 58°36' E 017°34'0 0.0
2016-Jul-20 14:33N 58°36' E 017°34'0 0.0
2016-Jul-20 13:33N 58°36' E 017°34'0 0.0
2016-Jul-20 12:33N 58°36' E 017°34'0 0.1
2016-Jul-20 11:33N 58°36' E 017°34'0 0.0
2016-Jul-20 10:33N 58°36' E 017°34'0 0.0
2016-Jul-20 09:33N 58°36' E 017°34'0 0.0
2016-Jul-20 08:33N 58°36' E 017°34'0 0.0
2016-Jul-20 07:33N 58°36' E 017°34'0 0.0
2016-Jul-20 06:33N 58°36' E 017°34'0 0.1
2016-Jul-20 05:33N 58°36' E 017°34'0 0.1
2016-Jul-20 04:33N 58°36' E 017°35'4 3.3
2016-Jul-20 03:26N 58°37' E 017°41'1011.6
2016-Jul-20 02:33N 58°34' E 018°00'  
Track history (hours):
 
Tides and Currents Weather Stations Pressure Air Temp Water Temp Dewpoint Dewpoint Depression Visibility Wind Speed Wind Dir Waves Ship Positions

Nord Nanami

Last reported at 2016-Jul-29 13:34 UTC. Time now 2016-Jul-29 15:58 UTC.
Position N 57°48' E 010°24'.

Length 180 m; draft 9.6 m.

Type: Cargo ship. MMSI: 373694000.

Date/timePositionNaut miles runAvg speedWind from/ knotsBaromVisibWave heightAir tempDewpointWater temp
2016-Jul-29 13:34N 57°48' E 010°24'1211.7
2016-Jul-29 12:33N 57°48' E 010°46'1211.8
2016-Jul-29 11:33N 57°44' E 011°07'1211.6
2016-Jul-29 10:33N 57°39' E 011°27'8 8.0
2016-Jul-29 09:33N 57°36' E 011°41'0 0.0
2016-Jul-29 08:31N 57°36' E 011°41'0 0.0
2016-Jul-29 07:31N 57°36' E 011°41'1 1.0
2016-Jul-29 06:33N 57°35' E 011°40'7 6.7
2016-Jul-29 05:33N 57°29' E 011°35'1111.3
2016-Jul-29 04:33N 57°18' E 011°33'1312.6
2016-Jul-29 03:33N 57°06' E 011°41'1312.6
2016-Jul-29 02:33N 56°54' E 011°50'1110.7
2016-Jul-29 01:33N 56°44' E 011°53'3112.5
2016-Jul-28 23:03N 56°25' E 011°07'510.2
2016-Jul-28 22:33N 56°20' E 011°06'1312.8
2016-Jul-28 21:33N 56°07' E 011°06'1512.3
2016-Jul-28 20:20N 55°53' E 010°55'3111.1
2016-Jul-28 17:31N 55°22' E 011°02'1111.4
2016-Jul-28 16:33N 55°11' E 011°05'1212.4
2016-Jul-28 15:33N 54°59' E 011°01'1211.9
2016-Jul-28 14:33N 54°48' E 010°52'10 9.8
2016-Jul-28 13:33N 54°40' E 011°01'1312.6
2016-Jul-28 12:33N 54°34' E 011°20'1312.7
2016-Jul-28 11:33N 54°28' E 011°40'1211.9
2016-Jul-28 10:33N 54°26' E 011°60'1110.7
2016-Jul-28 09:33N 54°33' E 012°13'1212.0
2016-Jul-28 08:33N 54°42' E 012°28'4812.0
2016-Jul-28 04:33N 55°00' E 013°45'1212.0
2016-Jul-28 03:33N 55°08' E 014°02'1211.6
2016-Jul-28 02:33N 55°15' E 014°18'1212.1
2016-Jul-28 01:33N 55°24' E 014°31'1212.1
2016-Jul-28 00:33N 55°31' E 014°49'1212.1
2016-Jul-27 23:33N 55°36' E 015°08'1211.8
2016-Jul-27 22:33N 55°42' E 015°27'1412.1
2016-Jul-27 21:22N 55°50' E 015°48'1012.2
2016-Jul-27 20:33N 55°55' E 016°03'5012.1
2016-Jul-27 16:27N 56°32' E 017°02'12412.0
2016-Jul-27 06:06N 58°36' E 017°30'5 9.1
2016-Jul-27 05:33N 58°37' E 017°21'8 7.8
2016-Jul-27 04:33N 58°40' E 017°07'0 0.1
2016-Jul-27 03:31N 58°40' E 017°07'0 0.0
2016-Jul-27 02:31N 58°40' E 017°07'0 0.0
2016-Jul-27 01:31N 58°40' E 017°07'0 0.0
2016-Jul-27 00:31N 58°40' E 017°07'0 0.0
2016-Jul-26 23:31N 58°40' E 017°07'0 0.0
2016-Jul-26 22:31N 58°40' E 017°07'0 0.0
2016-Jul-26 21:31N 58°40' E 017°07'0 0.0
2016-Jul-26 20:31N 58°40' E 017°07'0 0.0
2016-Jul-26 19:31N 58°40' E 017°07'0 0.0
2016-Jul-26 18:28N 58°40' E 017°07'0 0.0
2016-Jul-26 17:31N 58°40' E 017°07'0 0.0
2016-Jul-26 16:31N 58°40' E 017°07'0 0.0
2016-Jul-26 15:31N 58°40' E 017°07'0 0.0
2016-Jul-26 14:31N 58°40' E 017°07'0 0.0
2016-Jul-26 13:31N 58°40' E 017°07'0 0.0
2016-Jul-26 12:31N 58°40' E 017°07'0 0.0
2016-Jul-26 11:31N 58°40' E 017°07'0 0.0
2016-Jul-26 10:31N 58°40' E 017°07'0 0.0
2016-Jul-26 09:31N 58°40' E 017°07'0 0.0
2016-Jul-26 08:31N 58°40' E 017°07'0 0.0
2016-Jul-26 07:31N 58°40' E 017°07'0 0.0
2016-Jul-26 06:31N 58°40' E 017°07'0 0.0
2016-Jul-26 05:31N 58°40' E 017°07'0 0.0
2016-Jul-26 04:31N 58°40' E 017°07'0 0.0
2016-Jul-26 03:31N 58°40' E 017°07'0 0.0
2016-Jul-26 02:31N 58°40' E 017°07'0 0.0
2016-Jul-26 01:31N 58°40' E 017°07'0 0.0
2016-Jul-26 00:31N 58°40' E 017°07'0 0.0
2016-Jul-25 23:31N 58°40' E 017°07'0 0.0
2016-Jul-25 22:31N 58°40' E 017°07'0 0.0
2016-Jul-25 21:31N 58°40' E 017°07'0 0.0
2016-Jul-25 20:28N 58°40' E 017°07'0 0.0
2016-Jul-25 19:31N 58°40' E 017°07'0 0.0
2016-Jul-25 18:31N 58°40' E 017°07'0 0.0
2016-Jul-25 17:33N 58°40' E 017°07'3 2.6
2016-Jul-25 16:33N 58°38' E 017°10'2 2.3
2016-Jul-25 15:33N 58°37' E 017°14'10 9.9
2016-Jul-25 14:33N 58°36' E 017°33'1 0.8
2016-Jul-25 13:33N 58°36' E 017°34'0 0.0
2016-Jul-25 12:30N 58°36' E 017°34'0 0.0
2016-Jul-25 11:33N 58°36' E 017°34'0 0.0
2016-Jul-25 10:27N 58°36' E 017°34'0 0.0
2016-Jul-25 09:33N 58°36' E 017°35'0 0.0
2016-Jul-25 08:33N 58°36' E 017°35'0 0.0
2016-Jul-25 07:33N 58°36' E 017°35'0 0.0
2016-Jul-25 06:33N 58°36' E 017°35'0 0.0
2016-Jul-25 05:27N 58°36' E 017°35'0 0.0
2016-Jul-25 04:33N 58°36' E 017°34'0 0.0
2016-Jul-25 03:33N 58°36' E 017°34'0 0.0
2016-Jul-25 02:33N 58°36' E 017°34'0 0.0
2016-Jul-25 01:24N 58°36' E 017°34'0 0.0
2016-Jul-24 23:30N 58°36' E 017°34'0 0.0
2016-Jul-24 22:33N 58°36' E 017°34'0 0.0
2016-Jul-24 21:33N 58°36' E 017°34'0 0.0
2016-Jul-24 20:33N 58°36' E 017°34'0 0.0
2016-Jul-24 19:33N 58°36' E 017°35'0 0.0
2016-Jul-24 18:30N 58°36' E 017°35'0 0.0
2016-Jul-24 17:33N 58°36' E 017°35'0 0.0
2016-Jul-24 16:33N 58°36' E 017°34'0 0.0
2016-Jul-24 15:33N 58°36' E 017°34'0 0.0
2016-Jul-24 14:33N 58°36' E 017°34'0 0.0
2016-Jul-24 13:33N 58°36' E 017°34'0 0.0
2016-Jul-24 12:33N 58°36' E 017°34'0 0.0
2016-Jul-24 11:33N 58°36' E 017°35'0 0.0
2016-Jul-24 10:33N 58°36' E 017°35'0 0.0
2016-Jul-24 09:33N 58°36' E 017°35'0 0.0
2016-Jul-24 08:33N 58°36' E 017°35'0 0.0
2016-Jul-24 07:33N 58°36' E 017°35'0 0.0
2016-Jul-24 06:27N 58°36' E 017°35'0 0.0
2016-Jul-24 05:33N 58°36' E 017°35'0 0.0
2016-Jul-24 04:33N 58°36' E 017°34'0 0.0
2016-Jul-24 03:33N 58°36' E 017°34'0 0.0
2016-Jul-24 02:33N 58°36' E 017°34'0 0.0
2016-Jul-24 01:33N 58°36' E 017°34'0 0.1
2016-Jul-24 00:33N 58°36' E 017°34'0 0.1
2016-Jul-23 23:33N 58°36' E 017°34'0 0.1
2016-Jul-23 22:33N 58°36' E 017°35'0 0.1
2016-Jul-23 21:33N 58°36' E 017°35'0 0.1
2016-Jul-23 20:33N 58°36' E 017°35'0 0.0
2016-Jul-23 19:33N 58°36' E 017°35'0 0.0
2016-Jul-23 18:33N 58°36' E 017°35'0 0.0
2016-Jul-23 17:33N 58°36' E 017°35'0 0.0
2016-Jul-23 16:33N 58°36' E 017°35'0 0.0
2016-Jul-23 15:33N 58°36' E 017°34'0 0.0
2016-Jul-23 14:33N 58°36' E 017°34'0 0.0
2016-Jul-23 13:33N 58°36' E 017°34'0 0.0
2016-Jul-23 12:27N 58°36' E 017°34'0 0.0
2016-Jul-23 11:33N 58°36' E 017°34'0 0.0
2016-Jul-23 10:27N 58°36' E 017°34'0 0.0
2016-Jul-23 09:33N 58°36' E 017°34'0 0.0
2016-Jul-23 08:33N 58°36' E 017°34'0 0.0
2016-Jul-23 07:33N 58°36' E 017°34'0 0.0
2016-Jul-23 06:33N 58°36' E 017°34'0 0.0
2016-Jul-23 03:33N 58°36' E 017°34'0 0.0
2016-Jul-23 02:09N 58°36' E 017°34'0 0.0
2016-Jul-23 01:30N 58°36' E 017°34'0 0.0
2016-Jul-23 00:33N 58°36' E 017°34'0 0.0
2016-Jul-22 23:30N 58°36' E 017°34'0 0.0
2016-Jul-22 16:12N 58°36' E 017°34'0 0.1
2016-Jul-22 15:33N 58°36' E 017°34'0 0.0
2016-Jul-22 14:33N 58°36' E 017°34'0 0.0
2016-Jul-22 13:30N 58°36' E 017°34'0 0.0
2016-Jul-22 12:21N 58°36' E 017°34'0 0.0
2016-Jul-22 11:33N 58°36' E 017°34'0 0.0
2016-Jul-22 09:15N 58°36' E 017°34'0 0.1
2016-Jul-22 08:33N 58°36' E 017°34'0 0.0
2016-Jul-22 07:30N 58°36' E 017°34'0 0.0
2016-Jul-22 05:33N 58°36' E 017°34'0 0.0
2016-Jul-22 04:33N 58°36' E 017°34'0 0.0
2016-Jul-22 03:33N 58°36' E 017°34'0 0.0
2016-Jul-22 02:33N 58°36' E 017°35'0 0.0
2016-Jul-22 01:33N 58°36' E 017°35'0 0.0
2016-Jul-22 00:30N 58°36' E 017°35'0 0.0
2016-Jul-21 23:33N 58°36' E 017°35'0 0.1
2016-Jul-21 22:33N 58°36' E 017°34'0 0.0
2016-Jul-21 17:03N 58°36' E 017°34'0 0.1
2016-Jul-21 16:33N 58°36' E 017°34'0 0.0
2016-Jul-21 15:33N 58°36' E 017°34'0 0.0
2016-Jul-21 14:33N 58°36' E 017°34'0 0.0
2016-Jul-21 13:24N 58°36' E 017°34'0 0.1
2016-Jul-21 12:21N 58°36' E 017°34'0 0.1
2016-Jul-21 11:18N 58°36' E 017°34'0 0.0
2016-Jul-21 10:30N 58°36' E 017°34'0 0.0
2016-Jul-21 09:33N 58°36' E 017°34'0 0.0
2016-Jul-21 08:33N 58°36' E 017°34'0 0.0
2016-Jul-21 07:33N 58°36' E 017°34'0 0.0
2016-Jul-21 06:33N 58°36' E 017°34'0 0.0
2016-Jul-21 05:33N 58°36' E 017°34'0 0.0
2016-Jul-21 04:33N 58°36' E 017°34'0 0.0
2016-Jul-21 03:30N 58°36' E 017°34'0 0.0
2016-Jul-21 02:33N 58°36' E 017°34'0 0.0
2016-Jul-21 01:33N 58°36' E 017°34'0 0.0
2016-Jul-21 00:33N 58°36' E 017°34'0 0.0
2016-Jul-20 23:33N 58°36' E 017°35'0 0.1
2016-Jul-20 22:33N 58°36' E 017°35'0 0.1
2016-Jul-20 21:33N 58°36' E 017°34'0 0.0
2016-Jul-20 20:33N 58°36' E 017°34'0 0.0
2016-Jul-20 19:33N 58°36' E 017°34'0 0.0
2016-Jul-20 18:33N 58°36' E 017°34'0 0.0
2016-Jul-20 17:33N 58°36' E 017°34'0 0.0
2016-Jul-20 16:33N 58°36' E 017°34'0 0.0
2016-Jul-20 15:33N 58°36' E 017°34'0 0.0
2016-Jul-20 14:33N 58°36' E 017°34'0 0.0
2016-Jul-20 13:33N 58°36' E 017°34'0 0.0
2016-Jul-20 12:33N 58°36' E 017°34'0 0.1
2016-Jul-20 11:33N 58°36' E 017°34'0 0.0
2016-Jul-20 10:33N 58°36' E 017°34'0 0.0
2016-Jul-20 09:33N 58°36' E 017°34'0 0.0
2016-Jul-20 08:33N 58°36' E 017°34'0 0.0
2016-Jul-20 07:33N 58°36' E 017°34'0 0.0
2016-Jul-20 06:33N 58°36' E 017°34'0 0.1
2016-Jul-20 05:33N 58°36' E 017°34'0 0.1
2016-Jul-20 04:33N 58°36' E 017°35'4 3.3
2016-Jul-20 03:26N 58°37' E 017°41'1011.6
2016-Jul-20 02:33N 58°34' E 018°00'  

Dump ship's entire track history